Time;durP1;ratioP1;P1;durP2;ratioP2;P2;SDS_P1;SDS_P2;PMS_P1;PMS_P2;Temp;Humidity;BMP_temperature;BMP_pressure;BME280_temperature;BME280_humidity;BME280_pressure;Samples;Min_cycle;Max_cycle;Signal;HPM_P1;HPM_P2
2022/04/26 03:37:12;;;;;;;4.03;2.95;;;10.50;99.90;;;;;;5117526;28;20042;-66
2022/04/26 03:39:42;;;;;;;3.13;2.83;;;10.50;99.90;;;;;;5116680;28;20020;-67
2022/04/26 03:42:08;;;;;;;3.65;3.03;;;10.50;99.90;;;;;;5117494;28;20037;-67
2022/04/26 03:44:35;;;;;;;3.85;2.80;;;10.50;99.90;;;;;;5116500;28;20107;-66
2022/04/26 03:47:01;;;;;;;4.80;2.78;;;10.60;99.90;;;;;;5117650;28;20074;-67
2022/04/26 03:49:27;;;;;;;7.82;2.92;;;10.60;99.90;;;;;;5117349;28;20023;-66
2022/04/26 03:51:53;;;;;;;3.63;2.78;;;10.60;99.90;;;;;;5118244;28;20119;-66
2022/04/26 03:54:20;;;;;;;3.17;2.88;;;10.60;99.90;;;;;;5123465;28;20115;-67
2022/04/26 03:56:46;;;;;;;6.28;2.60;;;10.60;99.90;;;;;;5106370;28;20032;-67
2022/04/26 03:59:14;;;;;;;3.30;2.63;;;10.60;99.90;;;;;;5123648;28;20117;-66
2022/04/26 04:01:41;;;;;;;5.72;2.50;;;10.60;99.90;;;;;;5123335;28;20035;-67
2022/04/26 04:04:07;;;;;;;3.45;2.83;;;10.60;99.90;;;;;;5124002;28;20028;-66
2022/04/26 04:06:32;;;;;;;4.00;2.90;;;10.60;99.90;;;;;;5123686;28;20055;-67
2022/04/26 04:08:58;;;;;;;4.97;2.80;;;10.60;99.90;;;;;;5124034;28;20113;-67
2022/04/26 04:11:24;;;;;;;3.88;3.00;;;10.50;99.90;;;;;;5123322;28;20032;-66
2022/04/26 04:13:50;;;;;;;7.05;2.95;;;10.50;99.90;;;;;;5124256;28;20111;-66
2022/04/26 04:16:16;;;;;;;3.13;2.75;;;10.60;99.90;;;;;;5124044;28;20024;-66
2022/04/26 04:21:26;;;;;;;4.35;3.33;;;10.60;99.90;;;;;;5123994;28;20096;-66
2022/04/26 04:23:52;;;;;;;3.30;3.00;;;10.60;99.90;;;;;;5123443;28;20035;-66
2022/04/26 04:26:18;;;;;;;4.05;3.08;;;10.60;99.90;;;;;;5106223;28;20040;-66
2022/04/26 04:28:44;;;;;;;3.25;2.88;;;10.60;99.90;;;;;;5123868;28;20422;-66
2022/04/26 04:31:10;;;;;;;6.65;3.35;;;10.60;99.90;;;;;;5123762;28;20307;-66
2022/04/26 04:33:38;;;;;;;5.07;3.33;;;10.70;99.90;;;;;;5123843;28;20031;-66
2022/04/26 04:36:04;;;;;;;3.47;2.72;;;10.70;99.90;;;;;;5124481;28;20035;-66
2022/04/26 04:38:30;;;;;;;6.72;3.05;;;10.70;99.90;;;;;;5123781;28;20050;-66
2022/04/26 04:40:56;;;;;;;6.13;3.30;;;10.70;99.90;;;;;;5123776;28;20438;-66
2022/04/26 04:43:22;;;;;;;6.03;3.03;;;10.60;99.90;;;;;;5123766;28;20031;-66
2022/04/26 04:45:48;;;;;;;3.97;2.90;;;10.50;99.90;;;;;;5123576;28;20157;-66
2022/04/26 04:48:14;;;;;;;3.45;2.78;;;10.60;99.90;;;;;;5123779;28;20038;-65
2022/04/26 04:50:40;;;;;;;4.93;3.08;;;10.50;99.90;;;;;;5122810;28;20169;-65
2022/04/26 04:53:06;;;;;;;4.65;2.90;;;10.60;99.90;;;;;;5124184;28;20080;-66
2022/04/26 04:55:32;;;;;;;6.55;3.40;;;10.70;99.90;;;;;;5123686;28;20036;-66
2022/04/26 04:57:58;;;;;;;3.15;2.60;;;10.60;99.90;;;;;;5122794;28;20093;-65
2022/04/26 05:00:24;;;;;;;5.70;3.00;;;10.70;99.90;;;;;;5123490;28;20043;-66
2022/04/26 05:02:50;;;;;;;3.35;2.83;;;10.70;99.90;;;;;;5122779;28;20027;-66
2022/04/26 05:05:16;;;;;;;4.07;3.17;;;10.70;99.90;;;;;;5120087;28;20042;-65
2022/04/26 05:07:42;;;;;;;3.60;3.13;;;10.70;99.90;;;;;;5119753;28;20027;-66
2022/04/26 05:10:08;;;;;;;4.30;3.13;;;10.80;99.90;;;;;;5102426;28;20035;-66
2022/04/26 05:12:37;;;;;;;6.28;3.28;;;10.80;99.90;;;;;;5119567;28;20123;-66
2022/04/26 05:15:03;;;;;;;4.28;3.10;;;10.70;99.90;;;;;;5119329;28;20023;-66
2022/04/26 05:17:30;;;;;;;5.50;3.45;;;10.80;99.90;;;;;;5119207;28;20051;-66
2022/04/26 05:19:56;;;;;;;3.75;2.90;;;10.70;99.90;;;;;;5120004;28;20142;-67
2022/04/26 05:22:22;;;;;;;3.92;2.90;;;10.80;99.90;;;;;;5120038;28;20031;-67
2022/04/26 05:24:54;;;;;;;4.35;2.95;;;10.80;99.90;;;;;;5119837;28;20019;-66
2022/04/26 05:27:28;;;;;;;4.85;3.28;;;10.90;99.90;;;;;;5119469;28;20435;-66
2022/04/26 05:29:55;;;;;;;3.97;2.97;;;10.90;99.90;;;;;;5119865;28;20403;-65
2022/04/26 05:32:27;;;;;;;3.00;2.70;;;11.00;99.90;;;;;;5119081;28;20031;-66
2022/04/26 05:35:00;;;;;;;3.20;2.60;;;11.00;99.90;;;;;;5119802;28;20073;-66
2022/04/26 05:37:26;;;;;;;3.17;2.88;;;11.00;99.90;;;;;;5118881;28;20114;-66
2022/04/26 05:39:53;;;;;;;4.80;2.95;;;11.00;99.90;;;;;;5119578;28;20032;-63
2022/04/26 05:42:18;;;;;;;3.78;2.75;;;11.00;99.90;;;;;;5118888;28;20451;-66
2022/04/26 05:44:44;;;;;;;5.28;2.85;;;11.00;99.90;;;;;;5119339;28;20089;-66
2022/04/26 05:47:10;;;;;;;4.72;2.88;;;11.10;99.90;;;;;;5118904;28;20268;-66
2022/04/26 05:49:36;;;;;;;5.65;3.08;;;11.10;99.90;;;;;;5119408;28;20299;-66
2022/04/26 05:52:06;;;;;;;4.57;3.20;;;11.10;99.90;;;;;;5119196;28;20295;-66
2022/04/26 05:54:33;;;;;;;4.63;2.97;;;11.30;99.90;;;;;;5119379;28;20050;-66
2022/04/26 05:56:58;;;;;;;4.03;2.70;;;11.30;99.90;;;;;;5119198;28;20032;-66
2022/04/26 05:59:25;;;;;;;4.85;3.08;;;11.50;99.90;;;;;;5118666;28;20052;-66
2022/04/26 06:01:52;;;;;;;3.72;2.92;;;11.50;99.90;;;;;;5119359;28;20032;-66
2022/04/26 06:04:18;;;;;;;5.55;3.00;;;11.60;99.90;;;;;;5119328;28;20023;-65
2022/04/26 06:06:44;;;;;;;6.07;3.15;;;11.60;99.90;;;;;;5119027;28;20023;-66
2022/04/26 06:09:15;;;;;;;3.88;2.55;;;11.70;99.90;;;;;;5118452;28;20054;-65
2022/04/26 06:11:41;;;;;;;4.13;2.60;;;11.70;99.90;;;;;;5118251;28;20027;-65
2022/04/26 06:14:08;;;;;;;4.90;3.20;;;11.70;99.90;;;;;;5118712;28;20272;-66
2022/04/26 06:16:34;;;;;;;4.15;2.60;;;11.80;99.90;;;;;;5116926;28;20035;-64
2022/04/26 06:18:59;;;;;;;6.80;2.97;;;11.70;99.90;;;;;;5119186;28;20328;-60
2022/04/26 06:21:25;;;;;;;4.38;3.38;;;11.80;99.90;;;;;;5118809;28;20127;-61
2022/04/26 06:23:51;;;;;;;4.30;3.08;;;11.80;99.90;;;;;;5118073;28;20039;-64
2022/04/26 06:26:17;;;;;;;4.93;3.20;;;11.90;99.90;;;;;;5101418;28;20075;-65
2022/04/26 06:28:43;;;;;;;5.03;3.25;;;12.00;99.90;;;;;;5118885;28;20061;-65
2022/04/26 06:31:09;;;;;;;7.75;3.03;;;11.90;99.90;;;;;;5100684;28;20299;-62
2022/04/26 06:33:35;;;;;;;5.30;3.42;;;12.20;99.90;;;;;;5118592;28;20031;-62
2022/04/26 06:36:00;;;;;;;3.33;2.80;;;12.40;99.90;;;;;;5118183;28;20024;-62
2022/04/26 06:38:27;;;;;;;8.45;3.55;;;12.50;99.90;;;;;;5117711;28;20337;-62
2022/04/26 06:40:53;;;;;;;3.95;3.17;;;12.50;99.90;;;;;;5118386;28;20276;-62
2022/04/26 06:43:19;;;;;;;5.78;3.08;;;12.50;99.90;;;;;;5118379;28;20020;-62
2022/04/26 06:45:46;;;;;;;4.72;3.22;;;12.50;99.90;;;;;;5117291;28;20155;-62
2022/04/26 06:48:13;;;;;;;8.30;3.50;;;12.50;99.90;;;;;;5117589;28;20028;-62
2022/04/26 06:50:41;;;;;;;6.50;3.40;;;12.50;99.90;;;;;;5117430;28;20096;-62
2022/04/26 06:53:07;;;;;;;8.38;4.10;;;12.40;99.90;;;;;;5118252;28;20038;-62
2022/04/26 06:55:34;;;;;;;3.78;3.10;;;12.50;99.90;;;;;;5118167;28;20024;-61
2022/04/26 06:57:59;;;;;;;5.72;3.70;;;12.50;99.90;;;;;;5118201;28;20088;-61
2022/04/26 07:00:25;;;;;;;6.78;3.65;;;12.50;99.90;;;;;;5118083;28;20027;-61
2022/04/26 07:02:51;;;;;;;5.70;3.70;;;12.60;99.90;;;;;;5117580;28;20020;-62
2022/04/26 07:05:17;;;;;;;5.03;3.78;;;12.60;99.90;;;;;;5117824;28;20031;-62
2022/04/26 07:07:43;;;;;;;4.45;3.70;;;12.70;99.90;;;;;;5117854;28;20027;-61
2022/04/26 07:10:10;;;;;;;6.45;3.90;;;12.80;99.90;;;;;;5118015;28;20028;-62
2022/04/26 07:12:36;;;;;;;5.80;3.55;;;12.80;99.90;;;;;;5117202;28;20068;-62
2022/04/26 07:15:03;;;;;;;4.80;3.72;;;12.70;99.90;;;;;;5117697;28;20020;-64
2022/04/26 07:17:30;;;;;;;6.53;3.33;;;12.80;99.90;;;;;;5117089;28;20111;-63
2022/04/26 07:19:58;;;;;;;4.97;3.38;;;12.60;99.90;;;;;;5117798;28;20160;-63
2022/04/26 07:22:25;;;;;;;4.88;3.72;;;12.70;99.90;;;;;;5117718;28;20104;-62
2022/04/26 07:24:51;;;;;;;6.07;4.00;;;12.80;99.90;;;;;;5118620;28;20040;-63
2022/04/26 07:27:18;;;;;;;4.50;3.40;;;13.00;99.90;;;;;;5116409;28;20028;-63
2022/04/26 07:29:51;;;;;;;6.82;3.50;;;13.10;99.90;;;;;;5117655;28;20023;-61
2022/04/26 07:32:18;;;;;;;4.15;3.22;;;13.10;99.90;;;;;;5116811;28;20303;-62
2022/04/26 07:34:47;;;;;;;7.20;3.10;;;13.20;99.90;;;;;;5116837;28;20020;-62
2022/04/26 07:37:13;;;;;;;6.53;3.72;;;13.00;99.90;;;;;;5117476;28;20024;-62
2022/04/26 07:39:39;;;;;;;5.28;3.60;;;13.00;99.90;;;;;;5116773;28;20065;-62
2022/04/26 07:42:05;;;;;;;5.05;3.17;;;13.20;99.90;;;;;;5117381;28;20105;-63
2022/04/26 07:44:31;;;;;;;4.15;3.22;;;13.10;99.90;;;;;;5116472;28;20032;-62
2022/04/26 07:46:58;;;;;;;5.53;3.50;;;13.00;99.90;;;;;;5117322;28;20031;-62
2022/04/26 07:49:26;;;;;;;5.97;3.47;;;13.20;99.90;;;;;;5116810;28;20040;-61
2022/04/26 07:51:52;;;;;;;5.57;3.30;;;13.20;99.90;;;;;;5117226;28;20040;-62
2022/04/26 07:54:18;;;;;;;6.55;3.53;;;13.30;99.90;;;;;;5117317;28;20031;-62
2022/04/26 07:56:45;;;;;;;4.90;3.55;;;13.30;99.90;;;;;;5117284;28;20416;-62
2022/04/26 07:59:11;;;;;;;4.22;3.10;;;13.20;99.90;;;;;;5117903;28;20027;-62
2022/04/26 08:01:37;;;;;;;6.43;3.03;;;13.30;99.90;;;;;;5117487;28;20405;-62
2022/04/26 08:04:03;;;;;;;5.43;2.88;;;13.50;99.90;;;;;;5116505;28;20042;-62
2022/04/26 08:06:29;;;;;;;3.47;2.45;;;13.60;99.90;;;;;;5099410;28;20130;-62
2022/04/26 08:08:55;;;;;;;4.82;2.85;;;13.80;99.90;;;;;;5117306;28;20102;-62
2022/04/26 08:11:22;;;;;;;2.97;2.70;;;13.90;99.90;;;;;;5117073;28;20031;-62
2022/04/26 08:13:48;;;;;;;3.40;2.55;;;13.90;99.90;;;;;;5116563;28;20027;-63
2022/04/26 08:16:14;;;;;;;6.88;2.70;;;14.00;99.90;;;;;;5117177;28;20291;-63
2022/04/26 08:18:41;;;;;;;4.72;2.60;;;14.20;99.90;;;;;;5117110;28;20042;-62
2022/04/26 08:21:08;;;;;;;6.13;3.10;;;14.50;99.90;;;;;;5116857;28;20031;-61
2022/04/26 08:27:22;;;;;;;4.25;3.03;;;14.60;99.90;;;;;;5117173;28;20364;-61
2022/04/26 08:29:14;;;;;;;4.18;2.55;;;15.00;99.90;;;;;;5117399;28;20272;-62
2022/04/26 08:31:40;;;;;;;4.95;3.10;;;15.10;99.90;;;;;;5116150;28;20085;-62
2022/04/26 08:34:06;;;;;;;5.65;2.88;;;15.30;99.90;;;;;;5117624;28;20302;-63
2022/04/26 08:36:32;;;;;;;5.70;2.85;;;15.40;99.90;;;;;;5116285;28;20036;-62
2022/04/26 08:38:58;;;;;;;7.13;3.10;;;15.40;99.90;;;;;;5117393;28;20040;-62
2022/04/26 08:41:24;;;;;;;4.53;2.67;;;15.50;99.90;;;;;;5120899;28;20024;-62
2022/04/26 08:43:50;;;;;;;3.72;2.55;;;15.50;99.90;;;;;;5120906;28;20031;-63
2022/04/26 08:46:16;;;;;;;4.75;2.50;;;15.60;99.90;;;;;;5120623;28;20047;-63
2022/04/26 08:51:28;;;;;;;5.38;2.55;;;15.70;99.90;;;;;;5120943;28;20067;-62
2022/04/26 08:53:54;;;;;;;7.10;2.78;;;15.90;99.90;;;;;;5119942;28;20035;-63
2022/04/26 08:56:20;;;;;;;5.53;3.00;;;15.80;99.90;;;;;;5120798;28;20032;-63
2022/04/26 08:58:46;;;;;;;3.60;2.55;;;15.80;99.90;;;;;;5120551;28;20027;-63
2022/04/26 09:01:22;;;;;;;7.95;2.97;;;15.70;99.90;;;;;;5120115;28;20062;-64
2022/04/26 09:04:02;;;;;;;4.75;2.63;;;15.50;99.90;;;;;;5120654;28;20047;-62
2022/04/26 09:06:39;;;;;;;5.80;3.00;;;15.30;99.90;;;;;;5120492;28;20039;-63
2022/04/26 09:09:10;;;;;;;5.47;2.72;;;15.20;99.90;;;;;;5120322;28;20295;-63
2022/04/26 09:11:37;;;;;;;6.23;2.77;;;15.20;99.90;;;;;;5120515;28;20055;-63
2022/04/26 09:14:09;;;;;;;6.40;2.95;;;15.30;99.90;;;;;;5120497;28;20095;-62
2022/04/26 09:16:35;;;;;;;5.82;2.50;;;15.40;99.90;;;;;;5120289;28;20116;-62
2022/04/26 09:19:08;;;;;;;8.18;2.75;;;15.10;99.90;;;;;;5120212;28;20414;-63
2022/04/26 09:21:35;;;;;;;4.30;2.95;;;15.10;99.90;;;;;;5119097;28;20050;-63
2022/04/26 09:24:06;;;;;;;5.57;2.35;;;15.30;99.90;;;;;;5119285;28;20061;-62
2022/04/26 09:26:34;;;;;;;4.00;2.83;;;15.40;99.90;;;;;;5119187;28;20035;-63
2022/04/26 09:29:00;;;;;;;9.48;3.10;;;15.40;99.90;;;;;;5119945;28;20367;-62
2022/04/26 09:31:32;;;;;;;3.97;2.50;;;15.50;99.90;;;;;;5119005;28;20042;-63
2022/04/26 09:34:04;;;;;;;5.38;2.22;;;15.40;99.90;;;;;;5119184;28;20024;-62
2022/04/26 09:36:35;;;;;;;6.22;2.65;;;15.40;99.90;;;;;;5119522;28;20059;-62
2022/04/26 09:39:02;;;;;;;5.35;2.83;;;15.40;99.90;;;;;;5119933;28;20031;-62
2022/04/26 09:41:29;;;;;;;4.20;2.40;;;15.40;99.90;;;;;;5119661;28;20039;-62
2022/04/26 09:44:07;;;;;;;4.72;2.40;;;15.50;99.90;;;;;;5101917;28;20031;-61
2022/04/26 09:46:42;;;;;;;7.75;3.05;;;15.90;99.90;;;;;;5119489;28;20046;-62
2022/04/26 09:49:10;;;;;;;4.35;2.28;;;16.00;99.90;;;;;;5118806;28;20399;-62
2022/04/26 09:51:39;;;;;;;4.43;2.60;;;16.10;99.90;;;;;;5101330;28;20063;-63
2022/04/26 09:54:06;;;;;;;3.33;2.38;;;16.20;99.90;;;;;;5119645;28;20067;-62
2022/04/26 09:56:32;;;;;;;4.53;2.47;;;16.10;99.90;;;;;;5119386;28;20020;-62
2022/04/26 09:59:02;;;;;;;6.05;2.75;;;16.10;99.90;;;;;;5119389;28;20047;-62
2022/04/26 10:01:42;;;;;;;3.40;2.10;;;16.10;99.90;;;;;;5119010;28;20112;-63
2022/04/26 10:04:13;;;;;;;2.78;2.30;;;16.10;99.90;;;;;;5119370;28;20102;-62
2022/04/26 10:06:42;;;;;;;5.22;2.38;;;16.10;99.90;;;;;;5119275;28;20066;-61
2022/04/26 10:09:09;;;;;;;4.50;2.75;;;16.30;99.90;;;;;;5119250;28;20106;-61
2022/04/26 10:11:36;;;;;;;4.40;2.50;;;16.30;99.90;;;;;;5119615;28;20480;-63
2022/04/26 10:14:08;;;;;;;4.15;2.50;;;16.70;99.90;;;;;;5119101;28;20328;-61
2022/04/26 10:16:34;;;;;;;4.60;2.60;;;17.00;99.90;;;;;;5119037;28;20027;-61
2022/04/26 10:19:07;;;;;;;4.03;2.30;;;17.20;99.90;;;;;;5118227;28;20115;-61
2022/04/26 10:21:35;;;;;;;;;;;17.20;99.90;;;;;;5119709;28;20126;-61
2022/04/26 10:24:04;;;;;;;3.90;2.63;;;17.30;99.90;;;;;;5118896;28;19950;-63
2022/04/26 10:26:31;;;;;;;7.25;2.60;;;17.20;99.90;;;;;;5119094;28;20418;-61
2022/04/26 10:29:02;;;;;;;7.88;2.65;;;17.00;99.90;;;;;;5118843;28;20034;-62
2022/04/26 10:31:41;;;;;;;8.77;2.78;;;17.30;99.90;;;;;;5118713;28;20092;-62
2022/04/26 10:34:26;;;;;;;3.72;2.50;;;17.40;99.90;;;;;;5118038;28;20288;-63
2022/04/26 10:36:56;;;;;;;6.40;2.45;;;17.70;99.90;;;;;;5100950;28;20035;-63
2022/04/26 10:39:36;;;;;;;3.83;2.20;;;17.80;99.90;;;;;;5118682;28;20051;-63
2022/04/26 10:42:07;;;;;;;3.13;2.20;;;18.20;99.90;;;;;;5118844;28;20038;-63
2022/04/26 10:44:39;;;;;;;3.55;1.90;;;18.10;99.90;;;;;;5117636;28;20031;-64
2022/04/26 10:47:05;;;;;;;6.32;2.10;;;18.10;99.90;;;;;;5118487;28;20039;-63
2022/04/26 10:49:37;;;;;;;3.70;1.95;;;18.20;99.90;;;;;;5118742;28;20348;-63
2022/04/26 10:52:19;;;;;;;4.57;2.58;;;18.50;99.90;;;;;;5118589;28;20040;-64
2022/04/26 10:55:02;;;;;;;3.78;2.22;;;18.70;99.90;;;;;;5119021;28;20091;-64
2022/04/26 10:57:33;;;;;;;3.47;2.55;;;18.50;99.90;;;;;;5118425;28;20020;-62
2022/04/26 11:00:01;;;;;;;3.58;2.20;;;18.60;99.90;;;;;;5117494;28;20345;-65
2022/04/26 11:02:29;;;;;;;3.80;2.33;;;18.00;99.90;;;;;;5117535;28;20084;-64
2022/04/26 11:05:00;;;;;;;4.32;2.28;;;18.40;99.90;;;;;;5118708;28;20036;-63
2022/04/26 11:07:29;;;;;;;3.95;2.35;;;18.80;99.90;;;;;;5117317;28;20073;-64
2022/04/26 11:09:57;;;;;;;4.25;2.65;;;19.10;99.90;;;;;;5117966;28;20023;-64
2022/04/26 11:12:32;;;;;;;5.90;2.85;;;20.10;99.90;;;;;;5118027;28;20057;-64
2022/04/26 11:15:00;;;;;;;4.68;2.80;;;20.60;99.90;;;;;;5118049;28;20381;-62
2022/04/26 11:17:29;;;;;;;3.10;2.80;;;20.40;99.40;;;;;;5117146;28;20047;-63
2022/04/26 11:20:00;;;;;;;4.45;2.50;;;19.40;99.90;;;;;;5117086;28;20181;-64
2022/04/26 11:22:27;;;;;;;6.78;2.70;;;19.00;99.90;;;;;;5117809;28;20027;-64
2022/04/26 11:28:10;;;;;;;5.30;2.70;;;18.50;99.50;;;;;;5118003;28;20395;-63
2022/04/26 11:30:44;;;;;;;5.63;2.47;;;18.10;99.90;;;;;;5117018;28;20130;-63
2022/04/26 11:33:11;;;;;;;5.88;2.50;;;18.40;99.90;;;;;;5117693;28;20036;-63
2022/04/26 11:35:41;;;;;;;5.63;2.90;;;19.00;99.90;;;;;;5118173;28;20033;-64
2022/04/26 11:38:14;;;;;;;4.75;3.22;;;19.60;99.90;;;;;;5100472;28;20280;-63
2022/04/26 11:41:01;;;;;;;4.35;3.67;;;19.90;99.40;;;;;;5117601;28;20063;-62
2022/04/26 11:43:33;;;;;;;9.65;4.07;;;19.70;98.90;;;;;;5117267;28;20127;-64
2022/04/26 11:46:00;;;;;;;6.80;5.32;;;19.70;98.90;;;;;;5117650;28;20134;-63
2022/04/26 11:48:32;;;;;;;6.88;4.70;;;19.40;98.10;;;;;;5117517;28;20031;-63
2022/04/26 11:50:59;;;;;;;4.40;3.63;;;19.70;98.40;;;;;;5117523;28;20360;-62
2022/04/26 11:53:30;;;;;;;5.30;3.50;;;19.40;97.30;;;;;;5116708;28;20115;-63
2022/04/26 11:55:58;;;;;;;4.28;3.85;;;19.50;97.40;;;;;;5117468;28;20570;-63
2022/04/26 11:58:27;;;;;;;5.38;3.70;;;19.70;97.70;;;;;;5117367;28;20023;-62
2022/04/26 12:00:54;;;;;;;3.58;2.70;;;19.60;96.70;;;;;;5116690;28;20024;-62
2022/04/26 12:03:21;;;;;;;3.28;2.70;;;20.00;96.10;;;;;;5117329;28;20031;-62
2022/04/26 12:05:51;;;;;;;4.57;2.90;;;20.40;94.40;;;;;;5117303;28;20050;-63
2022/04/26 12:08:18;;;;;;;4.03;2.90;;;21.10;93.40;;;;;;5116604;28;20036;-64
2022/04/26 12:10:47;;;;;;;6.00;2.97;;;21.40;92.50;;;;;;5116775;28;20386;-62
2022/04/26 12:13:14;;;;;;;3.75;2.60;;;22.00;92.20;;;;;;5100968;28;20048;-61
2022/04/26 12:15:39;;;;;;;3.42;2.30;;;22.30;91.00;;;;;;5103553;28;20119;-63
2022/04/26 12:18:13;;;;;;;6.97;2.58;;;22.60;90.30;;;;;;5103539;28;20055;-64
2022/04/26 12:21:02;;;;;;;4.43;2.35;;;22.80;88.70;;;;;;5121327;28;20023;-64
2022/04/26 12:23:31;;;;;;;4.68;2.67;;;22.70;89.10;;;;;;5120450;28;20031;-64
2022/04/26 12:26:02;;;;;;;4.22;2.67;;;23.70;81.50;;;;;;5121248;28;20176;-63
2022/04/26 12:28:29;;;;;;;2.17;1.90;;;24.00;80.50;;;;;;5121136;28;20031;-64
2022/04/26 12:30:56;;;;;;;3.22;2.05;;;23.80;78.40;;;;;;5120206;28;20311;-65
2022/04/26 12:33:34;;;;;;;3.67;2.67;;;23.30;77.90;;;;;;5120240;28;20042;-64
2022/04/26 12:36:06;;;;;;;3.00;2.30;;;23.10;78.70;;;;;;5120140;28;20031;-62
2022/04/26 12:38:52;;;;;;;4.40;2.38;;;22.00;83.00;;;;;;5121237;28;20023;-63
2022/04/26 12:41:18;;;;;;;3.80;2.65;;;22.10;81.40;;;;;;5103114;28;20043;-64
2022/04/26 12:43:44;;;;;;;2.63;2.25;;;23.50;79.70;;;;;;5086242;28;20035;-64
2022/04/26 12:46:10;;;;;;;5.68;2.50;;;23.50;77.30;;;;;;5119898;28;20043;-64
2022/04/26 12:51:27;;;;;;;3.67;2.22;;;24.70;73.80;;;;;;5120180;28;20055;-65
2022/04/26 12:54:07;;;;;;;3.10;2.30;;;24.70;73.90;;;;;;5120764;28;20032;-64
2022/04/26 12:56:33;;;;;;;4.53;2.53;;;25.40;71.10;;;;;;5120621;28;20115;-63
2022/04/26 12:58:59;;;;;;;3.58;2.47;;;25.90;69.80;;;;;;5120822;28;20472;-63
2022/04/26 13:01:24;;;;;;;3.53;2.70;;;24.60;70.80;;;;;;5119762;28;20361;-62
2022/04/26 13:03:50;;;;;;;3.65;2.58;;;24.00;73.10;;;;;;5119928;28;20078;-64
2022/04/26 13:06:18;;;;;;;2.80;2.45;;;23.20;74.40;;;;;;5119716;28;20093;-64
2022/04/26 13:08:46;;;;;;;5.75;2.80;;;22.70;75.60;;;;;;5119667;28;20100;-63
2022/04/26 13:11:12;;;;;;;3.80;2.67;;;22.20;78.00;;;;;;5119569;28;20053;-64
2022/04/26 13:13:39;;;;;;;4.03;2.55;;;22.20;77.10;;;;;;5120328;28;20047;-64
2022/04/26 13:16:05;;;;;;;5.10;2.85;;;20.90;78.60;;;;;;5119490;28;20024;-63
2022/04/26 13:18:32;;;;;;;4.40;2.63;;;21.40;80.70;;;;;;5120248;28;20434;-63
2022/04/26 13:20:59;;;;;;;3.63;2.60;;;21.60;78.70;;;;;;5120119;28;20367;-64
2022/04/26 13:23:26;;;;;;;3.63;2.53;;;21.70;76.90;;;;;;5120088;28;20359;-64
2022/04/26 13:25:53;;;;;;;4.00;2.65;;;22.90;76.10;;;;;;5118600;28;20032;-63
2022/04/26 13:28:19;;;;;;;4.50;2.60;;;22.70;75.50;;;;;;5102431;28;20189;-64
2022/04/26 13:30:46;;;;;;;4.68;2.67;;;23.60;75.30;;;;;;5119811;28;20027;-63
2022/04/26 13:33:12;;;;;;;5.30;2.65;;;25.70;72.00;;;;;;5102165;28;20114;-65
2022/04/26 13:35:38;;;;;;;3.85;3.10;;;27.60;66.70;;;;;;5119252;28;20028;-64
2022/04/26 13:38:10;;;;;;;6.68;2.83;;;27.70;63.90;;;;;;5085416;28;20027;-64
2022/04/26 13:40:39;;;;;;;3.25;2.88;;;27.00;64.40;;;;;;5119144;28;20407;-67
2022/04/26 13:43:07;;;;;;;3.78;2.78;;;25.60;64.10;;;;;;5102477;28;20051;-66
2022/04/26 13:45:33;;;;;;;4.15;3.60;;;25.30;64.80;;;;;;5119475;28;20399;-65
2022/04/26 13:48:01;;;;;;;5.35;3.17;;;23.40;65.90;;;;;;5119638;28;20027;-65
2022/04/26 13:50:29;;;;;;;4.82;3.20;;;23.10;69.80;;;;;;5119553;28;20142;-62
2022/04/26 13:52:55;;;;;;;4.70;3.08;;;22.30;70.20;;;;;;5119769;28;20405;-66
2022/04/26 13:55:21;;;;;;;4.28;3.20;;;22.20;71.60;;;;;;5118769;28;20023;-65
2022/04/26 13:57:47;;;;;;;4.65;3.20;;;22.80;70.10;;;;;;5119708;28;20081;-65
2022/04/26 14:00:17;;;;;;;5.00;3.10;;;22.50;69.30;;;;;;5119409;28;20019;-65
2022/04/26 14:02:48;;;;;;;2.60;2.40;;;22.70;67.60;;;;;;5119336;28;20019;-65
2022/04/26 14:05:20;;;;;;;4.78;2.90;;;22.80;68.40;;;;;;5119444;28;20031;-65
2022/04/26 14:07:46;;;;;;;4.77;3.00;;;22.80;69.00;;;;;;5118995;28;20024;-65
2022/04/26 14:10:13;;;;;;;3.10;2.65;;;23.70;66.60;;;;;;5119202;28;20027;-65
2022/04/26 14:12:39;;;;;;;4.88;3.33;;;23.70;66.30;;;;;;5101199;28;20032;-64
2022/04/26 14:23:27;;;;;;;3.67;3.10;;;24.30;64.80;;;;;;5118457;28;20360;-66
2022/04/26 14:25:53;;;;;;;3.85;2.60;;;25.30;61.10;;;;;;5118187;28;20035;-65
2022/04/26 14:28:19;;;;;;;3.63;2.30;;;25.50;61.80;;;;;;5118826;28;20031;-66
2022/04/26 14:30:45;;;;;;;4.35;2.53;;;26.80;59.60;;;;;;5117802;28;20046;-65
2022/04/26 14:33:11;;;;;;;6.32;2.83;;;27.00;58.20;;;;;;5101000;28;20360;-63
2022/04/26 14:35:37;;;;;;;3.10;2.47;;;26.20;57.30;;;;;;5118005;28;20345;-63
2022/04/26 14:38:03;;;;;;;4.03;2.50;;;25.20;59.40;;;;;;5117492;28;20024;-64
2022/04/26 14:40:29;;;;;;;2.88;2.38;;;24.20;59.80;;;;;;5100977;28;20035;-64
2022/04/26 14:42:55;;;;;;;3.67;2.67;;;23.50;62.40;;;;;;5118387;28;20410;-64
2022/04/26 14:45:21;;;;;;;3.67;2.75;;;22.70;64.50;;;;;;5118615;28;20043;-64
2022/04/26 14:47:47;;;;;;;3.75;2.80;;;22.00;66.70;;;;;;5117452;28;20352;-64
2022/04/26 14:50:13;;;;;;;4.10;2.72;;;21.60;69.00;;;;;;5118383;28;20036;-62
2022/04/26 14:52:39;;;;;;;3.60;3.05;;;21.10;69.70;;;;;;5118326;28;20107;-63
2022/04/26 14:55:08;;;;;;;5.22;3.13;;;21.10;69.50;;;;;;5118324;28;20109;-62
2022/04/26 14:57:36;;;;;;;4.70;2.97;;;21.50;68.00;;;;;;5118219;28;20024;-63
2022/04/26 15:00:07;;;;;;;6.38;2.92;;;21.90;68.70;;;;;;5118206;28;20023;-63
2022/04/26 15:02:40;;;;;;;3.63;3.20;;;24.00;64.70;;;;;;5100658;28;20035;-62
2022/04/26 15:05:08;;;;;;;4.70;3.10;;;24.70;62.50;;;;;;5118214;28;20048;-64
2022/04/26 15:10:20;;;;;;;7.35;3.60;;;22.90;66.10;;;;;;5117894;28;20106;-62
2022/04/26 15:18:14;;;;;;;5.13;3.15;;;20.70;71.30;;;;;;5117359;28;20076;-63
2022/04/26 15:20:50;;;;;;;6.85;3.47;;;20.30;73.90;;;;;;5117986;28;20115;-64
2022/04/26 15:23:17;;;;;;;6.10;3.10;;;20.10;74.80;;;;;;5101657;28;20173;-64
2022/04/26 15:25:50;;;;;;;5.10;3.15;;;20.40;74.40;;;;;;5117821;28;20096;-62
2022/04/26 15:28:17;;;;;;;9.00;3.47;;;21.80;73.20;;;;;;5117064;28;20039;-59
2022/04/26 15:30:43;;;;;;;5.80;3.38;;;23.70;67.90;;;;;;5116834;28;20034;-62
2022/04/26 15:33:10;;;;;;;5.32;3.00;;;25.00;64.90;;;;;;5117586;28;20031;-63
2022/04/26 15:35:38;;;;;;;3.42;2.60;;;25.90;62.90;;;;;;5117017;28;20092;-62
2022/04/26 15:38:06;;;;;;;6.78;2.70;;;27.50;60.40;;;;;;5117628;28;20103;-63
2022/04/26 15:40:32;;;;;;;6.18;2.78;;;28.10;57.50;;;;;;5117068;28;20421;-62
2022/04/26 15:42:59;;;;;;;3.85;3.00;;;27.20;58.30;;;;;;5117556;28;20307;-64
2022/04/26 15:45:24;;;;;;;3.83;2.60;;;25.90;59.00;;;;;;5117247;28;20048;-63
2022/04/26 15:47:50;;;;;;;5.80;2.60;;;25.20;60.80;;;;;;5116431;28;20402;-63
2022/04/26 15:50:16;;;;;;;4.22;2.22;;;24.60;61.10;;;;;;5117467;28;20032;-62
2022/04/26 15:52:42;;;;;;;4.47;2.40;;;24.20;62.20;;;;;;5117381;28;20055;-64
2022/04/26 15:55:09;;;;;;;5.05;2.70;;;23.60;64.10;;;;;;5117262;28;20020;-65
2022/04/26 15:57:35;;;;;;;5.60;2.63;;;23.40;64.60;;;;;;5116516;28;20118;-63
2022/04/26 16:00:01;;;;;;;2.90;2.20;;;23.60;63.70;;;;;;5117156;28;20037;-64
2022/04/26 16:02:27;;;;;;;5.30;2.53;;;24.40;63.70;;;;;;5117211;28;20336;-64
2022/04/26 16:04:53;;;;;;;3.25;2.70;;;24.50;63.20;;;;;;5117120;28;20279;-63
2022/04/26 16:07:18;;;;;;;4.68;2.78;;;25.20;61.40;;;;;;5117215;28;20031;-63
2022/04/26 16:20:42;;;;;;;5.88;2.80;;;23.20;65.10;;;;;;5117271;28;20035;-62
2022/04/26 16:23:08;;;;;;;6.10;2.80;;;22.30;65.80;;;;;;5117298;28;20323;-63
2022/04/26 16:25:34;;;;;;;4.28;2.65;;;21.60;67.80;;;;;;5117509;28;20057;-64
2022/04/26 16:28:01;;;;;;;4.53;2.67;;;20.70;70.40;;;;;;5116267;28;20035;-64
2022/04/26 16:30:31;;;;;;;4.85;3.10;;;20.30;71.60;;;;;;5116950;28;20023;-64
2022/04/26 16:32:58;;;;;;;3.80;2.95;;;19.90;73.10;;;;;;5116932;28;20458;-65
2022/04/26 16:35:24;;;;;;;3.92;2.72;;;19.20;74.10;;;;;;5117621;28;20039;-63
2022/04/26 16:37:52;;;;;;;3.83;2.65;;;18.90;75.90;;;;;;5117018;28;20068;-64
2022/04/26 16:40:18;;;;;;;4.20;2.60;;;18.60;77.30;;;;;;5099708;28;20020;-64
2022/04/26 16:42:44;;;;;;;5.93;3.13;;;18.70;77.70;;;;;;5116969;28;20023;-64
2022/04/26 16:45:11;;;;;;;6.20;2.80;;;19.20;76.30;;;;;;5116032;28;20061;-64
2022/04/26 16:47:36;;;;;;;4.43;2.75;;;19.20;76.20;;;;;;5116180;28;20028;-64
2022/04/26 16:50:04;;;;;;;2.97;2.67;;;18.90;77.30;;;;;;5116118;28;20034;-63
2022/04/26 16:52:31;;;;;;;4.30;3.03;;;18.50;77.50;;;;;;5116017;28;20047;-64
2022/04/26 16:54:57;;;;;;;3.63;2.72;;;18.20;78.70;;;;;;5116157;28;20309;-64
2022/04/26 16:57:23;;;;;;;5.32;2.55;;;18.00;80.10;;;;;;5116099;28;20111;-64
2022/04/26 16:59:49;;;;;;;3.92;2.47;;;18.10;79.80;;;;;;5117335;28;20116;-64
2022/04/26 17:02:14;;;;;;;5.00;2.63;;;18.40;79.70;;;;;;5120497;28;20027;-64
2022/04/26 17:04:41;;;;;;;4.28;3.08;;;18.80;78.90;;;;;;5120439;28;20276;-63
2022/04/26 17:07:07;;;;;;;5.25;2.78;;;18.90;78.10;;;;;;5120668;28;20039;-65
2022/04/26 17:09:34;;;;;;;3.30;2.70;;;19.10;78.10;;;;;;5119641;28;20032;-63